sensor_id;sensor_type;location;lat;lon;timestamp;P1;durP1;ratioP1;P2;durP2;ratioP2
44750;SDS011;30477;48.224;11.470;2023-07-13T00:01:11;5.75;;;3.97;;
44750;SDS011;30477;48.224;11.470;2023-07-13T00:03:38;6.80;;;3.80;;
44750;SDS011;30477;48.224;11.470;2023-07-13T00:06:06;9.85;;;3.63;;
44750;SDS011;30477;48.224;11.470;2023-07-13T00:08:32;7.13;;;3.65;;
44750;SDS011;30477;48.224;11.470;2023-07-13T00:10:58;4.68;;;3.40;;
44750;SDS011;30477;48.224;11.470;2023-07-13T00:13:24;6.28;;;3.42;;
44750;SDS011;30477;48.224;11.470;2023-07-13T00:15:50;5.90;;;3.40;;
44750;SDS011;30477;48.224;11.470;2023-07-13T00:18:15;5.57;;;3.85;;
44750;SDS011;30477;48.224;11.470;2023-07-13T00:20:41;4.33;;;3.53;;
44750;SDS011;30477;48.224;11.470;2023-07-13T00:23:06;7.80;;;3.70;;
44750;SDS011;30477;48.224;11.470;2023-07-13T00:25:32;6.88;;;3.65;;
44750;SDS011;30477;48.224;11.470;2023-07-13T00:27:57;4.80;;;3.60;;
44750;SDS011;30477;48.224;11.470;2023-07-13T00:30:22;8.40;;;4.13;;
44750;SDS011;30477;48.224;11.470;2023-07-13T00:32:48;5.90;;;3.67;;
44750;SDS011;30477;48.224;11.470;2023-07-13T00:35:14;6.93;;;4.10;;
44750;SDS011;30477;48.224;11.470;2023-07-13T00:37:40;5.45;;;3.90;;
44750;SDS011;30477;48.224;11.470;2023-07-13T00:40:06;6.13;;;3.45;;
44750;SDS011;30477;48.224;11.470;2023-07-13T00:42:33;7.22;;;3.78;;
44750;SDS011;30477;48.224;11.470;2023-07-13T00:47:27;5.30;;;3.90;;
44750;SDS011;30477;48.224;11.470;2023-07-13T00:49:52;8.37;;;4.40;;
44750;SDS011;30477;48.224;11.470;2023-07-13T00:52:17;8.27;;;4.40;;
44750;SDS011;30477;48.224;11.470;2023-07-13T00:54:43;5.60;;;4.20;;
44750;SDS011;30477;48.224;11.470;2023-07-13T00:57:12;6.05;;;3.80;;
44750;SDS011;30477;48.224;11.470;2023-07-13T00:59:42;6.65;;;4.07;;
44750;SDS011;30477;48.224;11.470;2023-07-13T01:02:11;7.22;;;4.00;;
44750;SDS011;30477;48.224;11.470;2023-07-13T01:04:37;9.80;;;4.15;;
44750;SDS011;30477;48.224;11.470;2023-07-13T01:09:29;6.65;;;3.42;;
44750;SDS011;30477;48.224;11.470;2023-07-13T01:11:55;7.97;;;4.40;;
44750;SDS011;30477;48.224;11.470;2023-07-13T01:14:20;6.17;;;3.83;;
44750;SDS011;30477;48.224;11.470;2023-07-13T01:16:46;9.60;;;4.30;;
44750;SDS011;30477;48.224;11.470;2023-07-13T01:19:18;7.88;;;4.38;;
44750;SDS011;30477;48.224;11.470;2023-07-13T01:22:00;7.20;;;3.53;;
44750;SDS011;30477;48.224;11.470;2023-07-13T01:24:26;7.68;;;4.25;;
44750;SDS011;30477;48.224;11.470;2023-07-13T01:26:52;11.17;;;4.67;;
44750;SDS011;30477;48.224;11.470;2023-07-13T01:29:17;9.47;;;4.60;;
44750;SDS011;30477;48.224;11.470;2023-07-13T01:31:42;14.27;;;5.03;;
44750;SDS011;30477;48.224;11.470;2023-07-13T01:34:09;10.43;;;4.85;;
44750;SDS011;30477;48.224;11.470;2023-07-13T01:36:35;9.63;;;4.60;;
44750;SDS011;30477;48.224;11.470;2023-07-13T01:39:01;6.97;;;4.18;;
44750;SDS011;30477;48.224;11.470;2023-07-13T01:41:27;7.72;;;4.00;;
44750;SDS011;30477;48.224;11.470;2023-07-13T01:43:52;5.73;;;4.13;;
44750;SDS011;30477;48.224;11.470;2023-07-13T01:46:17;9.17;;;4.53;;
44750;SDS011;30477;48.224;11.470;2023-07-13T01:48:43;7.57;;;4.40;;
44750;SDS011;30477;48.224;11.470;2023-07-13T01:51:08;5.93;;;4.20;;
44750;SDS011;30477;48.224;11.470;2023-07-13T01:53:33;7.23;;;4.50;;
44750;SDS011;30477;48.224;11.470;2023-07-13T01:55:59;8.10;;;4.20;;
44750;SDS011;30477;48.224;11.470;2023-07-13T01:58:24;4.70;;;4.17;;
44750;SDS011;30477;48.224;11.470;2023-07-13T02:00:50;5.70;;;4.70;;
44750;SDS011;30477;48.224;11.470;2023-07-13T02:03:16;6.85;;;4.22;;
44750;SDS011;30477;48.224;11.470;2023-07-13T02:08:08;5.97;;;3.95;;
44750;SDS011;30477;48.224;11.470;2023-07-13T02:10:34;4.83;;;4.00;;
44750;SDS011;30477;48.224;11.470;2023-07-13T02:12:59;6.30;;;4.17;;
44750;SDS011;30477;48.224;11.470;2023-07-13T02:15:24;5.33;;;4.00;;
44750;SDS011;30477;48.224;11.470;2023-07-13T02:17:50;6.43;;;3.90;;
44750;SDS011;30477;48.224;11.470;2023-07-13T02:20:15;7.47;;;4.10;;
44750;SDS011;30477;48.224;11.470;2023-07-13T02:22:40;6.33;;;4.10;;
44750;SDS011;30477;48.224;11.470;2023-07-13T02:25:05;6.57;;;4.17;;
44750;SDS011;30477;48.224;11.470;2023-07-13T02:27:31;6.03;;;3.95;;
44750;SDS011;30477;48.224;11.470;2023-07-13T02:29:57;6.68;;;4.43;;
44750;SDS011;30477;48.224;11.470;2023-07-13T02:32:22;6.17;;;4.63;;
44750;SDS011;30477;48.224;11.470;2023-07-13T02:34:50;6.18;;;4.75;;
44750;SDS011;30477;48.224;11.470;2023-07-13T02:37:15;5.90;;;4.47;;
44750;SDS011;30477;48.224;11.470;2023-07-13T02:39:40;8.10;;;4.47;;
44750;SDS011;30477;48.224;11.470;2023-07-13T02:42:06;9.00;;;4.85;;
44750;SDS011;30477;48.224;11.470;2023-07-13T02:44:31;10.77;;;4.65;;
44750;SDS011;30477;48.224;11.470;2023-07-13T02:46:57;6.13;;;5.07;;
44750;SDS011;30477;48.224;11.470;2023-07-13T02:49:22;8.87;;;4.63;;
44750;SDS011;30477;48.224;11.470;2023-07-13T02:51:47;5.87;;;4.80;;
44750;SDS011;30477;48.224;11.470;2023-07-13T02:54:13;6.97;;;5.30;;
44750;SDS011;30477;48.224;11.470;2023-07-13T02:56:38;8.30;;;5.40;;
44750;SDS011;30477;48.224;11.470;2023-07-13T02:59:04;6.53;;;5.03;;
44750;SDS011;30477;48.224;11.470;2023-07-13T03:01:29;7.93;;;5.93;;
44750;SDS011;30477;48.224;11.470;2023-07-13T03:03:55;8.93;;;5.27;;
44750;SDS011;30477;48.224;11.470;2023-07-13T03:06:20;8.20;;;5.80;;
44750;SDS011;30477;48.224;11.470;2023-07-13T03:08:46;8.57;;;5.72;;
44750;SDS011;30477;48.224;11.470;2023-07-13T03:11:14;9.07;;;5.85;;
44750;SDS011;30477;48.224;11.470;2023-07-13T03:13:42;7.18;;;5.20;;
44750;SDS011;30477;48.224;11.470;2023-07-13T03:16:08;9.90;;;5.53;;
44750;SDS011;30477;48.224;11.470;2023-07-13T03:18:35;8.63;;;4.82;;
44750;SDS011;30477;48.224;11.470;2023-07-13T03:21:01;6.68;;;5.10;;
44750;SDS011;30477;48.224;11.470;2023-07-13T03:23:26;6.00;;;4.60;;
44750;SDS011;30477;48.224;11.470;2023-07-13T03:26:06;7.05;;;5.18;;
44750;SDS011;30477;48.224;11.470;2023-07-13T03:28:31;7.68;;;4.97;;
44750;SDS011;30477;48.224;11.470;2023-07-13T03:31:04;12.27;;;5.03;;
44750;SDS011;30477;48.224;11.470;2023-07-13T03:33:31;7.90;;;5.07;;
44750;SDS011;30477;48.224;11.470;2023-07-13T03:35:57;5.82;;;4.70;;
44750;SDS011;30477;48.224;11.470;2023-07-13T03:38:22;8.00;;;4.40;;
44750;SDS011;30477;48.224;11.470;2023-07-13T03:40:48;5.40;;;4.43;;
44750;SDS011;30477;48.224;11.470;2023-07-13T03:43:14;8.48;;;4.82;;
44750;SDS011;30477;48.224;11.470;2023-07-13T03:45:39;6.43;;;4.20;;
44750;SDS011;30477;48.224;11.470;2023-07-13T03:48:05;8.80;;;4.70;;
44750;SDS011;30477;48.224;11.470;2023-07-13T03:50:30;7.70;;;4.57;;
44750;SDS011;30477;48.224;11.470;2023-07-13T03:52:57;5.97;;;4.40;;
44750;SDS011;30477;48.224;11.470;2023-07-13T03:55:23;6.30;;;4.57;;
44750;SDS011;30477;48.224;11.470;2023-07-13T03:57:53;7.03;;;4.45;;
44750;SDS011;30477;48.224;11.470;2023-07-13T04:00:22;6.75;;;3.97;;
44750;SDS011;30477;48.224;11.470;2023-07-13T04:02:48;6.27;;;3.80;;
44750;SDS011;30477;48.224;11.470;2023-07-13T04:05:14;5.20;;;3.95;;
44750;SDS011;30477;48.224;11.470;2023-07-13T04:07:40;6.10;;;3.97;;
44750;SDS011;30477;48.224;11.470;2023-07-13T04:10:05;4.57;;;3.87;;
44750;SDS011;30477;48.224;11.470;2023-07-13T04:12:31;6.20;;;3.50;;
44750;SDS011;30477;48.224;11.470;2023-07-13T04:14:56;5.20;;;3.90;;
44750;SDS011;30477;48.224;11.470;2023-07-13T04:17:21;5.47;;;3.73;;
44750;SDS011;30477;48.224;11.470;2023-07-13T04:19:47;6.00;;;3.93;;
44750;SDS011;30477;48.224;11.470;2023-07-13T04:22:13;7.68;;;3.88;;
44750;SDS011;30477;48.224;11.470;2023-07-13T04:24:39;4.30;;;3.40;;
44750;SDS011;30477;48.224;11.470;2023-07-13T04:27:04;5.40;;;3.73;;
44750;SDS011;30477;48.224;11.470;2023-07-13T04:29:30;4.38;;;3.10;;
44750;SDS011;30477;48.224;11.470;2023-07-13T04:31:55;6.03;;;3.83;;
44750;SDS011;30477;48.224;11.470;2023-07-13T04:34:20;5.17;;;3.67;;
44750;SDS011;30477;48.224;11.470;2023-07-13T04:36:46;6.93;;;4.00;;
44750;SDS011;30477;48.224;11.470;2023-07-13T04:39:11;4.93;;;3.53;;
44750;SDS011;30477;48.224;11.470;2023-07-13T04:41:36;4.43;;;3.77;;
44750;SDS011;30477;48.224;11.470;2023-07-13T04:44:02;6.23;;;4.33;;
44750;SDS011;30477;48.224;11.470;2023-07-13T04:46:28;5.30;;;3.72;;
44750;SDS011;30477;48.224;11.470;2023-07-13T04:48:53;7.97;;;4.10;;
44750;SDS011;30477;48.224;11.470;2023-07-13T04:51:19;4.82;;;3.88;;
44750;SDS011;30477;48.224;11.470;2023-07-13T04:53:44;6.40;;;3.83;;
44750;SDS011;30477;48.224;11.470;2023-07-13T04:56:10;8.33;;;3.83;;
44750;SDS011;30477;48.224;11.470;2023-07-13T04:58:35;5.33;;;4.03;;
44750;SDS011;30477;48.224;11.470;2023-07-13T05:01:01;5.20;;;3.70;;
44750;SDS011;30477;48.224;11.470;2023-07-13T05:03:27;7.95;;;4.15;;
44750;SDS011;30477;48.224;11.470;2023-07-13T05:08:19;6.50;;;3.92;;
44750;SDS011;30477;48.224;11.470;2023-07-13T05:10:44;5.70;;;3.77;;
44750;SDS011;30477;48.224;11.470;2023-07-13T05:13:10;5.40;;;4.03;;
44750;SDS011;30477;48.224;11.470;2023-07-13T05:15:35;5.90;;;4.03;;
44750;SDS011;30477;48.224;11.470;2023-07-13T05:18:00;7.63;;;3.80;;
44750;SDS011;30477;48.224;11.470;2023-07-13T05:20:26;8.40;;;3.90;;
44750;SDS011;30477;48.224;11.470;2023-07-13T05:22:51;5.53;;;3.60;;
44750;SDS011;30477;48.224;11.470;2023-07-13T05:25:16;7.77;;;3.80;;
44750;SDS011;30477;48.224;11.470;2023-07-13T05:27:42;6.13;;;3.80;;
44750;SDS011;30477;48.224;11.470;2023-07-13T05:30:07;5.97;;;4.00;;
44750;SDS011;30477;48.224;11.470;2023-07-13T05:32:36;7.78;;;3.90;;
44750;SDS011;30477;48.224;11.470;2023-07-13T05:35:01;6.57;;;3.70;;
44750;SDS011;30477;48.224;11.470;2023-07-13T05:37:26;6.23;;;3.77;;
44750;SDS011;30477;48.224;11.470;2023-07-13T05:39:52;5.20;;;3.90;;
44750;SDS011;30477;48.224;11.470;2023-07-13T05:42:17;6.40;;;3.90;;
44750;SDS011;30477;48.224;11.470;2023-07-13T05:44:42;10.40;;;3.97;;
44750;SDS011;30477;48.224;11.470;2023-07-13T05:47:09;8.63;;;3.60;;
44750;SDS011;30477;48.224;11.470;2023-07-13T05:49:34;6.23;;;3.67;;
44750;SDS011;30477;48.224;11.470;2023-07-13T05:51:59;6.33;;;3.70;;
44750;SDS011;30477;48.224;11.470;2023-07-13T05:54:25;4.47;;;3.53;;
44750;SDS011;30477;48.224;11.470;2023-07-13T05:56:50;9.17;;;4.17;;
44750;SDS011;30477;48.224;11.470;2023-07-13T05:59:15;5.87;;;3.53;;
44750;SDS011;30477;48.224;11.470;2023-07-13T06:01:42;7.45;;;3.88;;
44750;SDS011;30477;48.224;11.470;2023-07-13T06:04:08;8.87;;;3.67;;
44750;SDS011;30477;48.224;11.470;2023-07-13T06:06:33;6.53;;;3.93;;
44750;SDS011;30477;48.224;11.470;2023-07-13T06:08:59;4.93;;;3.70;;
44750;SDS011;30477;48.224;11.470;2023-07-13T06:11:25;4.80;;;3.83;;
44750;SDS011;30477;48.224;11.470;2023-07-13T06:13:52;8.90;;;3.70;;
44750;SDS011;30477;48.224;11.470;2023-07-13T06:16:19;6.53;;;3.22;;
44750;SDS011;30477;48.224;11.470;2023-07-13T06:18:44;6.23;;;3.17;;
44750;SDS011;30477;48.224;11.470;2023-07-13T06:21:17;6.20;;;3.33;;
44750;SDS011;30477;48.224;11.470;2023-07-13T06:23:45;5.72;;;3.08;;
44750;SDS011;30477;48.224;11.470;2023-07-13T06:26:15;6.47;;;3.30;;
44750;SDS011;30477;48.224;11.470;2023-07-13T06:28:41;5.97;;;2.80;;
44750;SDS011;30477;48.224;11.470;2023-07-13T06:31:07;4.30;;;2.93;;
44750;SDS011;30477;48.224;11.470;2023-07-13T06:33:33;4.60;;;3.47;;
44750;SDS011;30477;48.224;11.470;2023-07-13T06:35:59;6.93;;;3.50;;
44750;SDS011;30477;48.224;11.470;2023-07-13T06:38:24;9.15;;;3.33;;
44750;SDS011;30477;48.224;11.470;2023-07-13T06:40:50;4.93;;;3.10;;
44750;SDS011;30477;48.224;11.470;2023-07-13T06:43:15;6.32;;;3.13;;
44750;SDS011;30477;48.224;11.470;2023-07-13T06:45:44;4.73;;;3.27;;
44750;SDS011;30477;48.224;11.470;2023-07-13T06:48:14;4.20;;;2.72;;
44750;SDS011;30477;48.224;11.470;2023-07-13T06:50:40;5.03;;;3.22;;
44750;SDS011;30477;48.224;11.470;2023-07-13T06:53:06;5.40;;;2.80;;
44750;SDS011;30477;48.224;11.470;2023-07-13T06:55:31;5.03;;;2.90;;
44750;SDS011;30477;48.224;11.470;2023-07-13T06:57:57;8.50;;;2.90;;
44750;SDS011;30477;48.224;11.470;2023-07-13T07:00:22;7.10;;;3.00;;
44750;SDS011;30477;48.224;11.470;2023-07-13T07:02:48;7.63;;;2.70;;
44750;SDS011;30477;48.224;11.470;2023-07-13T07:05:13;6.27;;;2.80;;
44750;SDS011;30477;48.224;11.470;2023-07-13T07:07:39;5.63;;;2.83;;
44750;SDS011;30477;48.224;11.470;2023-07-13T07:10:04;11.10;;;2.90;;
44750;SDS011;30477;48.224;11.470;2023-07-13T07:12:30;5.47;;;2.67;;
44750;SDS011;30477;48.224;11.470;2023-07-13T07:14:55;5.20;;;2.87;;
44750;SDS011;30477;48.224;11.470;2023-07-13T07:17:20;3.67;;;2.60;;
44750;SDS011;30477;48.224;11.470;2023-07-13T07:19:46;4.90;;;2.77;;
44750;SDS011;30477;48.224;11.470;2023-07-13T07:22:11;4.37;;;2.80;;
44750;SDS011;30477;48.224;11.470;2023-07-13T07:24:37;5.17;;;2.90;;
44750;SDS011;30477;48.224;11.470;2023-07-13T07:27:02;5.77;;;3.03;;
44750;SDS011;30477;48.224;11.470;2023-07-13T07:29:28;4.75;;;3.10;;
44750;SDS011;30477;48.224;11.470;2023-07-13T07:31:53;8.03;;;3.00;;
44750;SDS011;30477;48.224;11.470;2023-07-13T07:34:18;7.90;;;2.97;;
44750;SDS011;30477;48.224;11.470;2023-07-13T07:36:44;5.88;;;2.80;;
44750;SDS011;30477;48.224;11.470;2023-07-13T07:39:09;5.87;;;2.73;;
44750;SDS011;30477;48.224;11.470;2023-07-13T07:41:35;5.00;;;2.67;;
44750;SDS011;30477;48.224;11.470;2023-07-13T07:44:00;6.30;;;2.87;;
44750;SDS011;30477;48.224;11.470;2023-07-13T07:46:25;6.10;;;3.03;;
44750;SDS011;30477;48.224;11.470;2023-07-13T07:48:51;6.90;;;3.17;;
44750;SDS011;30477;48.224;11.470;2023-07-13T07:51:16;5.37;;;2.87;;
44750;SDS011;30477;48.224;11.470;2023-07-13T07:53:41;5.23;;;2.90;;
44750;SDS011;30477;48.224;11.470;2023-07-13T07:56:07;3.83;;;2.63;;
44750;SDS011;30477;48.224;11.470;2023-07-13T07:58:32;5.03;;;2.40;;
44750;SDS011;30477;48.224;11.470;2023-07-13T08:01:06;5.77;;;2.80;;
44750;SDS011;30477;48.224;11.470;2023-07-13T08:03:32;5.80;;;2.80;;
44750;SDS011;30477;48.224;11.470;2023-07-13T08:05:57;3.28;;;2.10;;
44750;SDS011;30477;48.224;11.470;2023-07-13T08:08:23;4.37;;;2.53;;
44750;SDS011;30477;48.224;11.470;2023-07-13T08:10:48;5.85;;;2.75;;
44750;SDS011;30477;48.224;11.470;2023-07-13T08:13:14;7.63;;;2.70;;
44750;SDS011;30477;48.224;11.470;2023-07-13T08:15:39;5.93;;;2.90;;
44750;SDS011;30477;48.224;11.470;2023-07-13T08:18:05;4.55;;;2.72;;
44750;SDS011;30477;48.224;11.470;2023-07-13T08:20:31;7.35;;;2.38;;
44750;SDS011;30477;48.224;11.470;2023-07-13T08:22:56;5.97;;;2.95;;
44750;SDS011;30477;48.224;11.470;2023-07-13T08:25:21;8.93;;;3.07;;
44750;SDS011;30477;48.224;11.470;2023-07-13T08:27:48;11.52;;;2.47;;
44750;SDS011;30477;48.224;11.470;2023-07-13T08:30:13;4.97;;;2.43;;
44750;SDS011;30477;48.224;11.470;2023-07-13T08:32:38;7.23;;;2.97;;
44750;SDS011;30477;48.224;11.470;2023-07-13T08:35:04;4.25;;;2.38;;
44750;SDS011;30477;48.224;11.470;2023-07-13T08:37:30;5.80;;;2.45;;
44750;SDS011;30477;48.224;11.470;2023-07-13T08:39:56;6.63;;;2.20;;
44750;SDS011;30477;48.224;11.470;2023-07-13T08:47:49;4.47;;;2.45;;
44750;SDS011;30477;48.224;11.470;2023-07-13T08:50:19;7.90;;;2.45;;
44750;SDS011;30477;48.224;11.470;2023-07-13T08:52:49;5.75;;;2.45;;
44750;SDS011;30477;48.224;11.470;2023-07-13T08:55:15;6.57;;;2.77;;
44750;SDS011;30477;48.224;11.470;2023-07-13T08:57:41;4.95;;;2.30;;
44750;SDS011;30477;48.224;11.470;2023-07-13T09:00:10;5.72;;;2.40;;
44750;SDS011;30477;48.224;11.470;2023-07-13T09:10:57;6.28;;;2.60;;
44750;SDS011;30477;48.224;11.470;2023-07-13T09:16:46;5.65;;;2.40;;
44750;SDS011;30477;48.224;11.470;2023-07-13T09:19:15;3.72;;;2.20;;
44750;SDS011;30477;48.224;11.470;2023-07-13T09:21:47;4.22;;;2.20;;
44750;SDS011;30477;48.224;11.470;2023-07-13T09:24:23;5.28;;;2.30;;
44750;SDS011;30477;48.224;11.470;2023-07-13T09:26:51;6.03;;;2.50;;
44750;SDS011;30477;48.224;11.470;2023-07-13T09:29:21;7.33;;;2.20;;
44750;SDS011;30477;48.224;11.470;2023-07-13T09:31:53;5.25;;;2.10;;
44750;SDS011;30477;48.224;11.470;2023-07-13T09:34:23;6.97;;;2.20;;
44750;SDS011;30477;48.224;11.470;2023-07-13T09:36:49;3.63;;;2.05;;
44750;SDS011;30477;48.224;11.470;2023-07-13T09:39:18;5.83;;;2.23;;
44750;SDS011;30477;48.224;11.470;2023-07-13T09:42:00;5.38;;;2.40;;
44750;SDS011;30477;48.224;11.470;2023-07-13T09:44:35;9.48;;;2.25;;
44750;SDS011;30477;48.224;11.470;2023-07-13T09:47:21;4.32;;;2.15;;
44750;SDS011;30477;48.224;11.470;2023-07-13T09:50:00;3.65;;;2.03;;
44750;SDS011;30477;48.224;11.470;2023-07-13T09:52:29;6.85;;;2.35;;
44750;SDS011;30477;48.224;11.470;2023-07-13T09:58:04;3.80;;;2.45;;
44750;SDS011;30477;48.224;11.470;2023-07-13T10:00:30;6.93;;;2.20;;
44750;SDS011;30477;48.224;11.470;2023-07-13T10:03:00;5.57;;;2.45;;
44750;SDS011;30477;48.224;11.470;2023-07-13T10:05:47;5.72;;;1.98;;
44750;SDS011;30477;48.224;11.470;2023-07-13T10:08:17;3.50;;;1.85;;
44750;SDS011;30477;48.224;11.470;2023-07-13T10:10:44;3.20;;;1.70;;
44750;SDS011;30477;48.224;11.470;2023-07-13T10:16:09;4.55;;;2.05;;
44750;SDS011;30477;48.224;11.470;2023-07-13T10:18:39;7.35;;;2.22;;
44750;SDS011;30477;48.224;11.470;2023-07-13T10:21:14;6.07;;;2.28;;
44750;SDS011;30477;48.224;11.470;2023-07-13T10:23:48;3.90;;;1.98;;
44750;SDS011;30477;48.224;11.470;2023-07-13T10:26:25;4.05;;;2.00;;
44750;SDS011;30477;48.224;11.470;2023-07-13T10:28:56;3.25;;;1.90;;
44750;SDS011;30477;48.224;11.470;2023-07-13T10:31:26;4.07;;;2.13;;
44750;SDS011;30477;48.224;11.470;2023-07-13T10:33:51;6.45;;;2.20;;
44750;SDS011;30477;48.224;11.470;2023-07-13T10:36:28;6.97;;;2.30;;
44750;SDS011;30477;48.224;11.470;2023-07-13T10:38:59;7.75;;;2.63;;
44750;SDS011;30477;48.224;11.470;2023-07-13T10:41:28;5.10;;;2.15;;
44750;SDS011;30477;48.224;11.470;2023-07-13T10:43:57;7.47;;;2.35;;
44750;SDS011;30477;48.224;11.470;2023-07-13T10:46:24;5.43;;;2.70;;
44750;SDS011;30477;48.224;11.470;2023-07-13T10:48:54;4.65;;;2.15;;
44750;SDS011;30477;48.224;11.470;2023-07-13T10:51:22;5.20;;;2.30;;
44750;SDS011;30477;48.224;11.470;2023-07-13T10:54:10;5.35;;;2.25;;
44750;SDS011;30477;48.224;11.470;2023-07-13T10:56:38;5.85;;;2.22;;
44750;SDS011;30477;48.224;11.470;2023-07-13T10:59:14;3.88;;;2.50;;
44750;SDS011;30477;48.224;11.470;2023-07-13T11:01:49;4.30;;;2.25;;
44750;SDS011;30477;48.224;11.470;2023-07-13T11:04:20;3.92;;;2.50;;
44750;SDS011;30477;48.224;11.470;2023-07-13T11:09:31;5.68;;;2.20;;
44750;SDS011;30477;48.224;11.470;2023-07-13T11:12:48;5.57;;;2.45;;
44750;SDS011;30477;48.224;11.470;2023-07-13T11:15:12;5.15;;;2.08;;
44750;SDS011;30477;48.224;11.470;2023-07-13T11:22:42;5.53;;;2.43;;
44750;SDS011;30477;48.224;11.470;2023-07-13T11:36:04;4.90;;;2.35;;
44750;SDS011;30477;48.224;11.470;2023-07-13T11:38:33;5.65;;;1.90;;
44750;SDS011;30477;48.224;11.470;2023-07-13T11:41:06;7.15;;;2.33;;
44750;SDS011;30477;48.224;11.470;2023-07-13T11:43:37;5.07;;;2.25;;
44750;SDS011;30477;48.224;11.470;2023-07-13T11:46:13;4.40;;;2.40;;
44750;SDS011;30477;48.224;11.470;2023-07-13T11:48:45;6.82;;;2.10;;
44750;SDS011;30477;48.224;11.470;2023-07-13T11:51:15;3.40;;;2.30;;
44750;SDS011;30477;48.224;11.470;2023-07-13T11:53:47;4.82;;;2.13;;
44750;SDS011;30477;48.224;11.470;2023-07-13T11:56:15;5.05;;;2.33;;
44750;SDS011;30477;48.224;11.470;2023-07-13T11:58:40;6.25;;;2.47;;
44750;SDS011;30477;48.224;11.470;2023-07-13T12:01:10;4.32;;;1.88;;
44750;SDS011;30477;48.224;11.470;2023-07-13T12:03:43;4.53;;;2.10;;
44750;SDS011;30477;48.224;11.470;2023-07-13T12:09:11;5.72;;;2.10;;
44750;SDS011;30477;48.224;11.470;2023-07-13T12:11:40;3.35;;;1.88;;
44750;SDS011;30477;48.224;11.470;2023-07-13T12:14:06;3.63;;;1.70;;
44750;SDS011;30477;48.224;11.470;2023-07-13T12:16:32;3.03;;;1.40;;
44750;SDS011;30477;48.224;11.470;2023-07-13T12:19:01;2.05;;;1.60;;
44750;SDS011;30477;48.224;11.470;2023-07-13T12:21:36;4.80;;;1.60;;
44750;SDS011;30477;48.224;11.470;2023-07-13T12:24:03;5.07;;;2.03;;
44750;SDS011;30477;48.224;11.470;2023-07-13T12:26:30;4.63;;;1.58;;
44750;SDS011;30477;48.224;11.470;2023-07-13T12:28:58;3.95;;;1.65;;
44750;SDS011;30477;48.224;11.470;2023-07-13T12:33:58;4.50;;;1.60;;
44750;SDS011;30477;48.224;11.470;2023-07-13T12:36:37;3.30;;;1.67;;
44750;SDS011;30477;48.224;11.470;2023-07-13T12:41:49;3.03;;;1.90;;
44750;SDS011;30477;48.224;11.470;2023-07-13T12:44:16;6.75;;;2.13;;
44750;SDS011;30477;48.224;11.470;2023-07-13T12:46:56;2.53;;;1.90;;
44750;SDS011;30477;48.224;11.470;2023-07-13T12:49:40;4.35;;;1.70;;
44750;SDS011;30477;48.224;11.470;2023-07-13T12:52:12;5.38;;;2.25;;
44750;SDS011;30477;48.224;11.470;2023-07-13T12:54:40;4.57;;;1.88;;
44750;SDS011;30477;48.224;11.470;2023-07-13T12:57:08;3.43;;;2.00;;
44750;SDS011;30477;48.224;11.470;2023-07-13T12:59:41;3.75;;;1.67;;
44750;SDS011;30477;48.224;11.470;2023-07-13T13:02:22;2.75;;;1.52;;
44750;SDS011;30477;48.224;11.470;2023-07-13T13:04:56;3.53;;;2.05;;
44750;SDS011;30477;48.224;11.470;2023-07-13T13:07:22;3.22;;;1.73;;
44750;SDS011;30477;48.224;11.470;2023-07-13T13:09:48;4.55;;;1.80;;
44750;SDS011;30477;48.224;11.470;2023-07-13T13:12:13;3.57;;;1.70;;
44750;SDS011;30477;48.224;11.470;2023-07-13T13:14:40;4.70;;;2.10;;
44750;SDS011;30477;48.224;11.470;2023-07-13T13:17:11;4.55;;;2.20;;
44750;SDS011;30477;48.224;11.470;2023-07-13T13:19:45;3.65;;;1.88;;
44750;SDS011;30477;48.224;11.470;2023-07-13T13:22:11;4.68;;;1.98;;
44750;SDS011;30477;48.224;11.470;2023-07-13T13:24:36;3.87;;;1.97;;
44750;SDS011;30477;48.224;11.470;2023-07-13T13:27:01;4.33;;;1.90;;
44750;SDS011;30477;48.224;11.470;2023-07-13T13:29:27;4.28;;;1.95;;
44750;SDS011;30477;48.224;11.470;2023-07-13T13:31:53;3.83;;;1.85;;
44750;SDS011;30477;48.224;11.470;2023-07-13T13:34:20;4.38;;;1.80;;
44750;SDS011;30477;48.224;11.470;2023-07-13T13:36:48;4.00;;;2.13;;
44750;SDS011;30477;48.224;11.470;2023-07-13T13:39:18;4.45;;;1.77;;
44750;SDS011;30477;48.224;11.470;2023-07-13T13:41:52;4.32;;;1.83;;
44750;SDS011;30477;48.224;11.470;2023-07-13T13:44:18;3.50;;;1.65;;
44750;SDS011;30477;48.224;11.470;2023-07-13T13:46:45;6.00;;;2.00;;
44750;SDS011;30477;48.224;11.470;2023-07-13T13:49:13;2.92;;;1.75;;
44750;SDS011;30477;48.224;11.470;2023-07-13T13:51:41;3.22;;;2.10;;
44750;SDS011;30477;48.224;11.470;2023-07-13T13:54:09;3.13;;;1.60;;
44750;SDS011;30477;48.224;11.470;2023-07-13T13:56:36;4.70;;;1.77;;
44750;SDS011;30477;48.224;11.470;2023-07-13T13:59:01;3.33;;;1.70;;
44750;SDS011;30477;48.224;11.470;2023-07-13T14:01:26;4.40;;;2.07;;
44750;SDS011;30477;48.224;11.470;2023-07-13T14:03:53;3.00;;;1.80;;
44750;SDS011;30477;48.224;11.470;2023-07-13T14:06:18;2.77;;;1.80;;
44750;SDS011;30477;48.224;11.470;2023-07-13T14:08:44;2.90;;;1.70;;
44750;SDS011;30477;48.224;11.470;2023-07-13T14:11:12;3.33;;;1.90;;
44750;SDS011;30477;48.224;11.470;2023-07-13T14:13:41;3.13;;;1.70;;
44750;SDS011;30477;48.224;11.470;2023-07-13T14:16:12;3.22;;;1.80;;
44750;SDS011;30477;48.224;11.470;2023-07-13T14:18:42;3.78;;;2.13;;
44750;SDS011;30477;48.224;11.470;2023-07-13T14:21:16;2.85;;;1.88;;
44750;SDS011;30477;48.224;11.470;2023-07-13T14:23:43;5.47;;;2.13;;
44750;SDS011;30477;48.224;11.470;2023-07-13T14:26:14;3.53;;;1.73;;
44750;SDS011;30477;48.224;11.470;2023-07-13T14:28:42;4.28;;;2.15;;
44750;SDS011;30477;48.224;11.470;2023-07-13T14:31:10;5.95;;;2.00;;
44750;SDS011;30477;48.224;11.470;2023-07-13T14:33:37;2.53;;;1.90;;
44750;SDS011;30477;48.224;11.470;2023-07-13T14:36:03;4.13;;;1.90;;
44750;SDS011;30477;48.224;11.470;2023-07-13T14:38:45;4.18;;;1.70;;
44750;SDS011;30477;48.224;11.470;2023-07-13T14:41:11;3.73;;;2.00;;
44750;SDS011;30477;48.224;11.470;2023-07-13T14:43:36;5.83;;;1.90;;
44750;SDS011;30477;48.224;11.470;2023-07-13T14:46:01;2.83;;;2.10;;
44750;SDS011;30477;48.224;11.470;2023-07-13T14:48:27;3.13;;;1.80;;
44750;SDS011;30477;48.224;11.470;2023-07-13T14:50:56;4.17;;;2.00;;
44750;SDS011;30477;48.224;11.470;2023-07-13T14:53:24;5.18;;;2.03;;
44750;SDS011;30477;48.224;11.470;2023-07-13T14:55:52;3.08;;;2.00;;
44750;SDS011;30477;48.224;11.470;2023-07-13T14:58:18;4.28;;;1.67;;
44750;SDS011;30477;48.224;11.470;2023-07-13T15:00:43;3.93;;;2.17;;
44750;SDS011;30477;48.224;11.470;2023-07-13T15:03:23;3.63;;;1.77;;
44750;SDS011;30477;48.224;11.470;2023-07-13T15:05:50;5.70;;;2.13;;
44750;SDS011;30477;48.224;11.470;2023-07-13T15:08:16;3.35;;;2.05;;
44750;SDS011;30477;48.224;11.470;2023-07-13T15:10:41;5.28;;;2.40;;
44750;SDS011;30477;48.224;11.470;2023-07-13T15:13:15;4.07;;;1.70;;
44750;SDS011;30477;48.224;11.470;2023-07-13T15:15:43;5.07;;;2.15;;
44750;SDS011;30477;48.224;11.470;2023-07-13T15:18:11;4.82;;;2.03;;
44750;SDS011;30477;48.224;11.470;2023-07-13T15:20:37;4.28;;;1.92;;
44750;SDS011;30477;48.224;11.470;2023-07-13T15:23:03;2.13;;;1.90;;
44750;SDS011;30477;48.224;11.470;2023-07-13T15:25:30;5.38;;;2.17;;
44750;SDS011;30477;48.224;11.470;2023-07-13T15:27:58;4.20;;;1.70;;
44750;SDS011;30477;48.224;11.470;2023-07-13T15:30:57;3.75;;;1.95;;
44750;SDS011;30477;48.224;11.470;2023-07-13T15:33:17;4.05;;;2.17;;
44750;SDS011;30477;48.224;11.470;2023-07-13T15:35:47;3.17;;;1.88;;